createdAt,value
2023-01-22T00:00:16.406Z,0
2023-01-22T00:00:56.703Z,0
2023-01-22T00:01:37.243Z,0
2023-01-22T00:02:17.766Z,0
2023-01-22T00:07:01.288Z,0
2023-01-22T00:07:41.755Z,0
2023-01-22T00:08:22.552Z,0
2023-01-22T00:09:03.015Z,0
2023-01-22T00:09:43.587Z,0
2023-01-22T00:10:24.127Z,0
2023-01-22T00:13:02.314Z,0
2023-01-22T00:13:42.869Z,0
2023-01-22T00:14:23.507Z,0
2023-01-22T00:15:03.930Z,0
2023-01-22T00:17:16.822Z,0
2023-01-22T00:17:57.300Z,0
2023-01-22T00:18:39.592Z,0
2023-01-22T00:19:20.712Z,0
2023-01-22T00:20:41.856Z,0
2023-01-22T00:21:22.209Z,0
2023-01-22T00:22:02.805Z,0
2023-01-22T00:22:44.307Z,0
2023-01-22T00:23:25.732Z,0
2023-01-22T00:24:06.167Z,0
2023-01-22T00:31:31.921Z,0
2023-01-22T00:32:12.486Z,0
2023-01-22T00:32:52.933Z,0
2023-01-22T00:33:33.412Z,0
2023-01-22T00:34:13.926Z,0
2023-01-22T00:34:54.471Z,0
2023-01-22T00:35:35.075Z,0
2023-01-22T00:36:15.607Z,0
2023-01-22T00:36:56.269Z,0
2023-01-22T00:43:53.203Z,0
2023-01-22T00:44:35.736Z,0
2023-01-22T00:45:16.259Z,0
2023-01-22T00:48:08.203Z,0
2023-01-22T00:48:49.457Z,0
2023-01-22T00:49:29.995Z,0
2023-01-22T00:50:10.579Z,0
2023-01-22T00:53:33.201Z,0
2023-01-22T00:54:13.659Z,0
2023-01-22T00:54:54.172Z,0
2023-01-22T00:55:34.703Z,0
2023-01-22T00:56:15.301Z,0
2023-01-22T00:58:53.945Z,0
2023-01-22T00:59:34.469Z,0
2023-01-22T01:00:16.059Z,0
2023-01-22T01:00:56.305Z,0
2023-01-22T01:04:18.854Z,0
2023-01-22T01:04:59.360Z,0
2023-01-22T01:05:39.914Z,0
2023-01-22T01:06:20.447Z,0
2023-01-22T01:07:00.948Z,0
2023-01-22T01:07:41.464Z,0
2023-01-22T01:08:21.982Z,0
2023-01-22T01:09:02.508Z,0
2023-01-22T01:09:43.038Z,0
2023-01-22T01:15:08.862Z,0
2023-01-22T01:15:50.197Z,0
2023-01-22T01:16:31.516Z,0
2023-01-22T01:17:12.856Z,0
2023-01-22T01:17:53.381Z,0
2023-01-22T01:22:38.622Z,0
2023-01-22T01:23:19.148Z,0
2023-01-22T01:23:59.671Z,0
2023-01-22T01:24:40.197Z,0
2023-01-22T01:25:20.708Z,0
2023-01-22T01:26:01.248Z,0
2023-01-22T01:26:41.763Z,0
2023-01-22T01:27:22.259Z,0
2023-01-22T01:28:02.895Z,0
2023-01-22T01:28:43.552Z,0
2023-01-22T01:33:32.889Z,0
2023-01-22T01:34:13.403Z,0
2023-01-22T01:34:53.941Z,0
2023-01-22T01:35:34.484Z,0
2023-01-22T01:39:37.768Z,0
2023-01-22T01:40:19.449Z,0
2023-01-22T01:40:59.716Z,0
2023-01-22T01:41:40.212Z,0
2023-01-22T01:42:20.766Z,0
2023-01-22T01:44:59.790Z,0
2023-01-22T01:45:40.220Z,0
2023-01-22T01:46:20.767Z,0
2023-01-22T01:47:01.313Z,0
2023-01-22T01:51:05.504Z,0
2023-01-22T01:51:45.972Z,0
2023-01-22T01:52:26.477Z,0
2023-01-22T01:53:07.014Z,0
2023-01-22T01:53:47.518Z,0
2023-01-22T01:54:28.093Z,0
2023-01-22T01:55:08.628Z,0
2023-01-22T01:55:49.167Z,0
2023-01-22T02:00:38.662Z,0
2023-01-22T02:02:34.481Z,0
2023-01-22T02:03:15.018Z,0
2023-01-22T02:03:55.542Z,0
2023-01-22T02:04:36.061Z,0
2023-01-22T02:05:16.702Z,0
2023-01-22T02:05:57.151Z,0
2023-01-22T02:06:37.700Z,0
2023-01-22T02:09:16.656Z,0
2023-01-22T02:09:57.148Z,0
2023-01-22T02:10:37.693Z,0
2023-01-22T02:11:18.182Z,0
2023-01-22T02:16:13.498Z,0
2023-01-22T02:16:54.077Z,0
2023-01-22T02:17:35.359Z,0
2023-01-22T02:18:15.884Z,0
2023-01-22T02:20:28.656Z,0
2023-01-22T02:21:09.143Z,0
2023-01-22T02:21:49.662Z,0
2023-01-22T02:22:30.170Z,0
2023-01-22T02:25:54.579Z,0
2023-01-22T02:26:35.088Z,0
2023-01-22T02:27:15.622Z,0
2023-01-22T02:27:56.105Z,0
2023-01-22T02:28:36.611Z,0
2023-01-22T02:29:17.144Z,0
2023-01-22T02:29:57.653Z,0
2023-01-22T02:30:38.175Z,0
2023-01-22T02:36:44.075Z,0
2023-01-22T02:37:24.607Z,0
2023-01-22T02:40:03.592Z,0
2023-01-22T02:40:45.747Z,0
2023-01-22T02:41:26.273Z,0
2023-01-22T02:44:09.920Z,0
2023-01-22T02:44:53.930Z,0
2023-01-22T02:45:41.915Z,0
2023-01-22T02:48:11.998Z,0
2023-01-22T02:48:53.028Z,0
2023-01-22T02:49:35.014Z,0
2023-01-22T02:50:16.363Z,0
2023-01-22T02:52:30.441Z,0
2023-01-22T02:53:10.975Z,0
2023-01-22T02:53:51.524Z,0
2023-01-22T02:54:32.072Z,0
2023-01-22T02:58:46.891Z,0
2023-01-22T02:59:27.396Z,0
2023-01-22T03:00:07.898Z,0
2023-01-22T03:00:48.473Z,0
2023-01-22T03:04:51.525Z,0
2023-01-22T03:05:32.037Z,0
2023-01-22T03:06:12.564Z,0
2023-01-22T03:06:53.077Z,0
2023-01-22T03:07:33.644Z,0
2023-01-22T03:08:14.204Z,0
2023-01-22T03:08:54.660Z,0
2023-01-22T03:11:33.156Z,0
2023-01-22T03:12:13.672Z,0
2023-01-22T03:12:54.180Z,0
2023-01-22T03:13:34.690Z,0
2023-01-22T03:16:58.078Z,0
2023-01-22T03:17:38.616Z,0
2023-01-22T03:18:20.074Z,0
2023-01-22T03:19:00.644Z,0
2023-01-22T03:19:41.039Z,0
2023-01-22T03:20:21.557Z,0
2023-01-22T03:21:02.069Z,0
2023-01-22T03:21:42.563Z,0
2023-01-22T03:27:47.899Z,0
2023-01-22T03:30:26.401Z,0
2023-01-22T03:31:06.974Z,0
2023-01-22T03:31:47.517Z,0
2023-01-22T03:32:27.988Z,0
2023-01-22T03:36:31.101Z,0
2023-01-22T03:37:11.621Z,0
2023-01-22T03:37:52.149Z,0
2023-01-22T03:38:32.661Z,0
2023-01-22T03:39:13.216Z,0
2023-01-22T03:39:53.738Z,0
2023-01-22T03:40:34.256Z,0
2023-01-22T03:41:14.873Z,0
2023-01-22T03:41:55.376Z,0
2023-01-22T03:42:35.908Z,0
2023-01-22T03:49:21.174Z,0
2023-01-22T03:50:01.828Z,0
2023-01-22T03:50:42.239Z,0
2023-01-22T03:51:22.810Z,0
2023-01-22T03:52:03.355Z,0
2023-01-22T03:52:43.879Z,0
2023-01-22T03:53:24.426Z,0
2023-01-22T03:54:04.961Z,0
2023-01-22T03:54:45.482Z,0
2023-01-22T03:55:26.033Z,0
2023-01-22T04:02:12.026Z,0
2023-01-22T04:02:52.439Z,0
2023-01-22T04:05:31.061Z,0
2023-01-22T04:06:11.459Z,0
2023-01-22T04:06:51.972Z,0
2023-01-22T04:07:32.492Z,0
2023-01-22T04:11:35.597Z,0
2023-01-22T04:12:16.114Z,0
2023-01-22T04:12:56.630Z,0
2023-01-22T04:13:37.150Z,0
2023-01-22T04:14:17.705Z,0
2023-01-22T04:14:58.249Z,0
2023-01-22T04:15:38.794Z,0
2023-01-22T04:18:17.245Z,0
2023-01-22T04:18:57.842Z,0
2023-01-22T04:19:38.375Z,0
2023-01-22T04:20:19.153Z,0
2023-01-22T04:25:14.097Z,0
2023-01-22T04:25:54.639Z,0
2023-01-22T04:26:35.140Z,0
2023-01-22T04:27:15.662Z,0
2023-01-22T04:31:18.922Z,0
2023-01-22T04:31:59.288Z,0
2023-01-22T04:34:37.820Z,0
2023-01-22T04:35:18.300Z,0
2023-01-22T04:35:58.838Z,0
2023-01-22T04:38:38.880Z,0
2023-01-22T04:39:19.305Z,0
2023-01-22T04:39:59.812Z,0
2023-01-22T04:40:40.332Z,0
2023-01-22T04:44:43.504Z,0
2023-01-22T04:45:24.033Z,0
2023-01-22T04:46:04.631Z,0
2023-01-22T04:46:45.027Z,0
2023-01-22T04:47:25.512Z,0
2023-01-22T04:48:06.027Z,0
2023-01-22T04:48:46.538Z,0
2023-01-22T04:49:27.063Z,0
2023-01-22T04:50:07.565Z,0
2023-01-22T04:50:48.134Z,0
2023-01-22T04:56:53.691Z,0
2023-01-22T04:57:34.202Z,0
2023-01-22T04:58:14.763Z,0
2023-01-22T04:58:55.277Z,0
2023-01-22T04:59:35.802Z,0
2023-01-22T05:00:16.602Z,0
2023-01-22T05:00:56.871Z,0
2023-01-22T05:01:37.414Z,0
2023-01-22T05:02:17.956Z,0
2023-01-22T05:02:58.436Z,0
2023-01-22T05:09:56.265Z,0
2023-01-22T05:10:36.655Z,0
2023-01-22T05:11:17.205Z,0
2023-01-22T05:11:59.208Z,0
2023-01-22T05:12:40.724Z,0
2023-01-22T05:14:53.774Z,0
2023-01-22T05:15:34.321Z,0
2023-01-22T05:16:15.515Z,0
2023-01-22T05:16:56.034Z,0
2023-01-22T05:20:18.975Z,0
2023-01-22T05:20:59.259Z,0
2023-01-22T05:21:39.744Z,0
2023-01-22T05:22:20.266Z,0
2023-01-22T05:23:00.775Z,0
2023-01-22T05:23:41.375Z,0
2023-01-22T05:24:21.907Z,0
2023-01-22T05:25:02.555Z,0
2023-01-22T05:25:42.936Z,0
2023-01-22T05:31:08.532Z,0
2023-01-22T05:33:25.148Z,0
2023-01-22T05:34:08.058Z,0
2023-01-22T05:34:50.188Z,0
2023-01-22T05:35:30.737Z,0
2023-01-22T05:36:11.262Z,0
2023-01-22T05:38:43.562Z,0
2023-01-22T05:39:24.968Z,0
2023-01-22T05:40:05.614Z,0
2023-01-22T05:40:46.331Z,0
2023-01-22T05:43:18.625Z,0
2023-01-22T05:43:59.164Z,0
2023-01-22T05:44:42.235Z,0
2023-01-22T05:45:22.857Z,0
2023-01-22T05:47:36.531Z,0
2023-01-22T05:48:18.662Z,0
2023-01-22T05:48:59.873Z,0
2023-01-22T05:49:41.533Z,0
2023-01-22T05:51:54.998Z,0
2023-01-22T05:52:35.519Z,0
2023-01-22T05:53:16.035Z,0
2023-01-22T05:53:56.564Z,0
2023-01-22T05:57:56.409Z,0
2023-01-22T05:58:37.757Z,0
2023-01-22T05:59:18.211Z,0
2023-01-22T05:59:58.781Z,0
2023-01-22T06:02:11.887Z,0
2023-01-22T06:02:52.432Z,0
2023-01-22T06:03:32.948Z,0
2023-01-22T06:04:13.399Z,0
2023-01-22T06:06:26.491Z,0
2023-01-22T06:07:07.043Z,0
2023-01-22T06:07:48.320Z,0
2023-01-22T06:08:29.543Z,0
2023-01-22T06:09:51.406Z,0
2023-01-22T06:10:32.037Z,0
2023-01-22T06:11:12.408Z,0
2023-01-22T06:11:52.932Z,0
2023-01-22T06:12:33.513Z,0
2023-01-22T06:15:13.678Z,0
2023-01-22T06:15:56.681Z,0
2023-01-22T06:16:37.668Z,0
2023-01-22T06:19:17.896Z,0
2023-01-22T06:19:59.349Z,0
2023-01-22T06:20:39.864Z,0
2023-01-22T06:21:20.404Z,0
2023-01-22T06:22:01.928Z,0
2023-01-22T06:22:44.334Z,0
2023-01-22T06:23:24.829Z,0
2023-01-22T06:24:05.420Z,0
2023-01-22T06:24:45.951Z,0
2023-01-22T06:25:26.604Z,0
2023-01-22T06:27:55.000Z,0
2023-01-22T06:28:35.426Z,0
2023-01-22T06:29:15.970Z,0
2023-01-22T06:29:56.527Z,0
2023-01-22T06:32:11.738Z,0
2023-01-22T06:32:53.233Z,0
2023-01-22T06:33:39.138Z,0
2023-01-22T06:37:24.272Z,0
2023-01-22T06:38:05.700Z,0
2023-01-22T06:38:46.229Z,0
2023-01-22T06:39:26.766Z,0
2023-01-22T06:40:09.035Z,0
2023-01-22T06:40:49.532Z,0
2023-01-22T06:41:30.040Z,0
2023-01-22T06:43:43.497Z,0
2023-01-22T06:44:23.972Z,0
2023-01-22T06:45:04.564Z,0
2023-01-22T06:45:46.768Z,0
2023-01-22T06:47:07.974Z,0
2023-01-22T06:47:49.105Z,0
2023-01-22T06:48:31.194Z,0
2023-01-22T06:49:11.737Z,0
2023-01-22T06:54:57.109Z,0
2023-01-22T06:55:37.692Z,0
2023-01-22T06:56:18.309Z,0
2023-01-22T06:56:58.823Z,0
2023-01-22T07:02:23.317Z,0
2023-01-22T07:03:03.832Z,0
2023-01-22T07:03:44.416Z,0
2023-01-22T07:04:24.918Z,0
2023-01-22T07:05:05.455Z,0
2023-01-22T07:05:46.073Z,0
2023-01-22T07:06:26.616Z,0
2023-01-22T07:07:07.144Z,0
2023-01-22T07:07:47.707Z,0
2023-01-22T07:11:21.697Z,0
2023-01-22T07:12:02.224Z,0
2023-01-22T07:12:42.728Z,0
2023-01-22T07:13:23.271Z,0
2023-01-22T07:17:26.534Z,0
2023-01-22T07:18:07.065Z,0
2023-01-22T07:18:47.556Z,0
2023-01-22T07:19:28.108Z,0
2023-01-22T07:20:08.625Z,0
2023-01-22T07:20:49.237Z,0
2023-01-22T07:21:29.834Z,0
2023-01-22T07:22:10.370Z,0
2023-01-22T07:22:50.888Z,0
2023-01-22T07:23:31.417Z,0
2023-01-22T07:29:36.525Z,0
2023-01-22T07:30:17.482Z,0
2023-01-22T07:30:57.792Z,0
2023-01-22T07:33:36.203Z,5
2023-01-22T07:34:16.756Z,5
2023-01-22T07:34:57.291Z,5
2023-01-22T07:35:37.915Z,5
2023-01-22T07:39:41.186Z,5
2023-01-22T07:40:21.715Z,5
2023-01-22T07:41:02.292Z,5
2023-01-22T07:43:40.982Z,10
2023-01-22T07:44:21.532Z,10
2023-01-22T07:45:02.158Z,10
2023-01-22T07:45:42.561Z,10
2023-01-22T07:49:05.899Z,15
2023-01-22T07:49:46.473Z,15
2023-01-22T07:50:27.817Z,15
2023-01-22T07:51:08.448Z,15
2023-01-22T07:51:49.184Z,15
2023-01-22T07:52:29.754Z,15
2023-01-22T07:53:10.335Z,15
2023-01-22T07:56:44.827Z,25
2023-01-22T07:57:25.377Z,25
2023-01-22T07:58:05.924Z,25
2023-01-22T07:58:46.428Z,30
2023-01-22T08:02:09.405Z,40
2023-01-22T08:02:49.890Z,40
2023-01-22T08:03:30.411Z,40
2023-01-22T08:04:10.933Z,40
2023-01-22T08:04:51.488Z,45
2023-01-22T08:05:32.034Z,45
2023-01-22T08:06:12.884Z,45
2023-01-22T08:06:53.451Z,45
2023-01-22T08:07:33.913Z,45
2023-01-22T08:10:28.227Z,50
2023-01-22T08:11:08.827Z,50
2023-01-22T08:11:49.396Z,50
2023-01-22T08:12:29.963Z,50
2023-01-22T08:16:44.884Z,45
2023-01-22T08:17:25.197Z,45
2023-01-22T08:18:05.687Z,40
2023-01-22T08:18:47.088Z,40
2023-01-22T08:21:19.758Z,40
2023-01-22T08:22:00.343Z,40
2023-01-22T08:22:40.907Z,40
2023-01-22T08:23:22.947Z,40
2023-01-22T08:25:52.012Z,40
2023-01-22T08:26:32.557Z,45
2023-01-22T08:27:13.787Z,45
2023-01-22T08:27:54.513Z,45
2023-01-22T08:30:07.596Z,50
2023-01-22T08:30:48.098Z,50
2023-01-22T08:31:28.889Z,50
2023-01-22T08:32:09.529Z,50
2023-01-22T08:35:32.679Z,50
2023-01-22T08:36:13.166Z,50
2023-01-22T08:36:53.697Z,50
2023-01-22T08:37:35.173Z,50
2023-01-22T08:38:15.807Z,50
2023-01-22T08:38:56.425Z,50
2023-01-22T08:39:36.931Z,50
2023-01-22T08:45:53.511Z,50
2023-01-22T08:46:33.928Z,50
2023-01-22T08:47:14.601Z,45
2023-01-22T08:47:54.996Z,45
2023-01-22T08:50:54.346Z,45
2023-01-22T08:51:35.074Z,45
2023-01-22T08:52:15.749Z,45
2023-01-22T08:52:56.908Z,45
2023-01-22T08:54:58.451Z,45
2023-01-22T08:57:16.602Z,40
2023-01-22T08:57:57.120Z,40
2023-01-22T08:58:37.617Z,40
2023-01-22T08:59:18.145Z,40
2023-01-22T09:02:11.765Z,40
2023-01-22T09:02:52.384Z,40
2023-01-22T09:03:32.733Z,40
2023-01-22T09:04:13.271Z,40
2023-01-22T09:06:27.493Z,35
2023-01-22T09:07:08.037Z,35
2023-01-22T09:07:48.536Z,40
2023-01-22T09:08:29.068Z,40
2023-01-22T09:11:52.577Z,45
2023-01-22T09:12:33.108Z,40
2023-01-22T09:13:13.637Z,40
2023-01-22T09:13:54.158Z,40
2023-01-22T09:14:34.658Z,40
2023-01-22T09:15:15.224Z,40
2023-01-22T09:15:57.715Z,45
2023-01-22T09:16:36.263Z,45
2023-01-22T09:17:16.729Z,50
2023-01-22T09:24:02.575Z,65
2023-01-22T09:24:43.096Z,60
2023-01-22T09:25:23.631Z,60
2023-01-22T09:26:04.112Z,55
2023-01-22T09:26:44.625Z,60
2023-01-22T09:27:25.140Z,60
2023-01-22T09:28:05.659Z,60
2023-01-22T09:28:46.196Z,60
2023-01-22T09:29:26.732Z,65
2023-01-22T09:33:41.452Z,70
2023-01-22T09:34:22.581Z,75
2023-01-22T09:35:03.110Z,75
2023-01-22T09:35:43.644Z,80
2023-01-22T09:39:06.154Z,80
2023-01-22T09:39:47.517Z,80
2023-01-22T09:40:28.024Z,75
2023-01-22T09:41:08.564Z,70
2023-01-22T09:41:49.078Z,70
2023-01-22T09:42:30.506Z,75
2023-01-22T09:43:11.047Z,75
2023-01-22T09:46:21.720Z,75
2023-01-22T09:47:03.173Z,80
2023-01-22T09:47:46.110Z,85
2023-01-22T09:50:24.637Z,80
2023-01-22T09:51:05.072Z,80
2023-01-22T09:51:45.573Z,80
2023-01-22T09:52:26.108Z,80
2023-01-22T09:57:13.092Z,75
2023-01-22T09:57:51.222Z,75
2023-01-22T09:58:31.732Z,75
2023-01-22T09:59:12.254Z,75
2023-01-22T09:59:52.741Z,80
2023-01-22T10:00:33.282Z,75
2023-01-22T10:01:13.856Z,75
2023-01-22T10:01:54.331Z,75
2023-01-22T10:04:47.876Z,75
2023-01-22T10:05:28.513Z,75
2023-01-22T10:06:08.900Z,75
2023-01-22T10:06:49.423Z,75
2023-01-22T10:10:12.972Z,80
2023-01-22T10:10:53.469Z,85
2023-01-22T10:11:33.990Z,85
2023-01-22T10:12:14.525Z,85
2023-01-22T10:12:55.042Z,90
2023-01-22T10:13:35.556Z,100
2023-01-22T10:14:16.081Z,100
2023-01-22T10:21:14.520Z,85
2023-01-22T10:21:54.929Z,85
2023-01-22T10:22:36.101Z,85
2023-01-22T10:23:16.617Z,90
2023-01-22T10:26:10.138Z,90
2023-01-22T10:26:51.610Z,95
2023-01-22T10:27:32.133Z,95
2023-01-22T10:28:12.638Z,95
2023-01-22T10:30:14.959Z,95
2023-01-22T10:30:55.581Z,100
2023-01-22T10:31:36.985Z,100
2023-01-22T10:32:17.359Z,95
2023-01-22T10:32:57.891Z,95
2023-01-22T10:33:38.427Z,95
2023-01-22T10:34:18.990Z,95
2023-01-22T10:36:57.557Z,110
2023-01-22T10:37:37.968Z,115
2023-01-22T10:38:18.496Z,115
2023-01-22T10:38:59.010Z,110
2023-01-22T10:43:02.179Z,115
2023-01-22T10:43:42.698Z,115
2023-01-22T10:44:23.214Z,115
2023-01-22T10:45:03.717Z,120
2023-01-22T10:45:44.318Z,125
2023-01-22T10:46:24.850Z,125
2023-01-22T10:47:05.315Z,125
2023-01-22T10:47:45.832Z,125
2023-01-22T10:48:26.368Z,125
2023-01-22T10:49:07.543Z,125
2023-01-22T10:55:12.222Z,125
2023-01-22T10:55:52.751Z,125
2023-01-22T10:56:33.275Z,125
2023-01-22T10:57:13.781Z,120
2023-01-22T10:57:54.293Z,120
2023-01-22T11:00:46.586Z,130
2023-01-22T11:01:15.049Z,130
2023-01-22T11:01:55.588Z,135
2023-01-22T11:02:36.196Z,145
2023-01-22T11:06:40.046Z,150
2023-01-22T11:07:21.206Z,150
2023-01-22T11:08:02.850Z,145
2023-01-22T11:08:43.157Z,140
2023-01-22T11:09:23.687Z,140
2023-01-22T11:14:09.032Z,155
2023-01-22T11:14:49.581Z,150
2023-01-22T11:15:30.189Z,150
2023-01-22T11:16:10.667Z,155
2023-01-22T11:18:49.152Z,145
2023-01-22T11:19:37.118Z,145
2023-01-22T11:20:10.740Z,145
2023-01-22T11:20:51.263Z,150
2023-01-22T11:23:44.957Z,135
2023-01-22T11:24:25.369Z,150
2023-01-22T11:25:08.096Z,155
2023-01-22T11:25:46.394Z,155
2023-01-22T11:28:30.104Z,150
2023-01-22T11:29:10.620Z,140
2023-01-22T11:29:51.130Z,150
2023-01-22T11:30:31.736Z,155
2023-01-22T11:31:12.245Z,160
2023-01-22T11:31:52.681Z,160
2023-01-22T11:32:33.208Z,160
2023-01-22T11:34:48.031Z,200
2023-01-22T11:35:29.346Z,190
2023-01-22T11:36:09.996Z,180
2023-01-22T11:36:51.033Z,160
2023-01-22T11:38:12.926Z,150
2023-01-22T11:38:53.764Z,150
2023-01-22T11:39:34.036Z,160
2023-01-22T11:40:14.647Z,165
2023-01-22T11:40:55.791Z,170
2023-01-22T11:41:36.302Z,160
2023-01-22T11:42:16.845Z,165
2023-01-22T11:42:57.460Z,175
2023-01-22T11:45:54.393Z,210
2023-01-22T11:46:34.937Z,195
2023-01-22T11:47:16.217Z,185
2023-01-22T11:47:58.459Z,190
2023-01-22T11:48:41.173Z,205
2023-01-22T11:50:09.309Z,245
2023-01-22T11:50:52.474Z,260
2023-01-22T11:53:00.314Z,265
2023-01-22T11:55:49.322Z,270
2023-01-22T11:56:31.409Z,270
2023-01-22T11:57:58.590Z,270
2023-01-22T11:58:40.405Z,260
2023-01-22T11:59:20.953Z,250
2023-01-22T12:03:29.403Z,265
2023-01-22T12:04:11.533Z,265
2023-01-22T12:04:52.487Z,270
2023-01-22T12:07:32.595Z,270
2023-01-22T12:08:14.022Z,265
2023-01-22T12:08:54.571Z,255
2023-01-22T12:09:35.230Z,250
2023-01-22T12:10:57.911Z,245
2023-01-22T12:11:38.431Z,235
2023-01-22T12:14:07.637Z,215
2023-01-22T12:14:48.891Z,215
2023-01-22T12:15:29.436Z,220
2023-01-22T12:18:07.569Z,210
2023-01-22T12:18:48.134Z,215
2023-01-22T12:19:29.568Z,230
2023-01-22T12:20:10.111Z,245
2023-01-22T12:23:44.195Z,275
2023-01-22T12:24:24.736Z,270
2023-01-22T12:25:05.381Z,265
2023-01-22T12:25:45.784Z,250
2023-01-22T12:29:09.240Z,205
2023-01-22T12:31:47.844Z,205
2023-01-22T12:32:28.292Z,200
2023-01-22T12:33:08.819Z,200
2023-01-22T12:33:49.372Z,210
2023-01-22T12:37:52.471Z,175
2023-01-22T12:38:32.986Z,200
2023-01-22T12:39:13.491Z,215
2023-01-22T12:39:54.023Z,215
2023-01-22T12:40:34.689Z,220
2023-01-22T12:41:15.072Z,230
2023-01-22T12:43:53.485Z,235
2023-01-22T12:44:34.017Z,235
2023-01-22T12:45:14.569Z,230
2023-01-22T12:45:55.101Z,215
2023-01-22T12:49:58.351Z,180
2023-01-22T12:50:39.096Z,175
2023-01-22T12:51:19.650Z,175
2023-01-22T12:52:00.230Z,180
2023-01-22T12:52:40.714Z,180
2023-01-22T12:53:21.253Z,175
2023-01-22T12:54:01.767Z,175
2023-01-22T12:54:43.024Z,170
2023-01-22T13:00:08.220Z,165
2023-01-22T13:00:48.793Z,170
2023-01-22T13:01:29.304Z,170
2023-01-22T13:02:09.894Z,175
2023-01-22T13:02:50.366Z,170
2023-01-22T13:03:32.200Z,170
2023-01-22T13:04:11.392Z,170
2023-01-22T13:04:51.896Z,180
2023-01-22T13:05:32.411Z,185
2023-01-22T13:06:12.949Z,180
2023-01-22T13:10:58.187Z,165
2023-01-22T13:11:38.812Z,160
2023-01-22T13:12:19.232Z,155
2023-01-22T13:12:59.765Z,150
2023-01-22T13:13:40.242Z,145
2023-01-22T13:16:18.819Z,160
2023-01-22T13:16:59.304Z,165
2023-01-22T13:17:39.851Z,160
2023-01-22T13:18:20.371Z,155
2023-01-22T13:22:23.594Z,125
2023-01-22T13:23:04.152Z,120
2023-01-22T13:23:44.666Z,115
2023-01-22T13:24:25.186Z,105
2023-01-22T13:25:05.717Z,90
2023-01-22T13:25:46.269Z,80
2023-01-22T13:26:26.839Z,85
2023-01-22T13:27:07.474Z,100
2023-01-22T13:27:47.853Z,110
2023-01-22T13:28:28.389Z,110
2023-01-22T13:34:33.332Z,100
2023-01-22T13:35:13.888Z,105
2023-01-22T13:35:54.416Z,110
2023-01-22T13:36:34.956Z,115
2023-01-22T13:37:15.485Z,120
2023-01-22T13:37:56.010Z,120
2023-01-22T13:38:36.514Z,115
2023-01-22T13:39:17.079Z,110
2023-01-22T13:39:57.578Z,105
2023-01-22T13:40:50.629Z,90
2023-01-22T13:47:23.329Z,40
2023-01-22T13:48:04.123Z,35
2023-01-22T13:48:44.367Z,30
2023-01-22T13:49:24.888Z,30
2023-01-22T13:50:05.412Z,30
2023-01-22T13:50:45.926Z,25
2023-01-22T13:51:26.544Z,25
2023-01-22T13:52:06.982Z,25
2023-01-22T13:52:47.501Z,25
2023-01-22T13:53:28.048Z,25
2023-01-22T14:00:53.832Z,45
2023-01-22T14:01:34.346Z,45
2023-01-22T14:04:12.783Z,60
2023-01-22T14:04:53.348Z,65
2023-01-22T14:05:33.876Z,65
2023-01-22T14:06:14.388Z,65
2023-01-22T14:08:57.439Z,65
2023-01-22T14:11:35.887Z,60
2023-01-22T14:12:16.392Z,55
2023-01-22T14:12:56.944Z,55
2023-01-22T14:13:37.605Z,50
2023-01-22T14:17:40.781Z,45
2023-01-22T14:20:19.526Z,55
2023-01-22T14:20:59.766Z,60
2023-01-22T14:21:40.356Z,65
2023-01-22T14:22:20.924Z,70
2023-01-22T14:26:36.760Z,75
2023-01-22T14:27:19.160Z,70
2023-01-22T14:28:00.671Z,65
2023-01-22T14:28:41.881Z,60
2023-01-22T14:29:26.646Z,55
2023-01-22T14:33:23.232Z,50
2023-01-22T14:34:03.104Z,50
2023-01-22T14:34:43.621Z,45
2023-01-22T14:35:24.187Z,45
2023-01-22T14:37:37.806Z,50
2023-01-22T14:38:18.312Z,55
2023-01-22T14:38:58.907Z,60
2023-01-22T14:39:39.364Z,60
2023-01-22T14:42:22.166Z,60
2023-01-22T14:43:02.691Z,55
2023-01-22T14:43:43.220Z,55
2023-01-22T14:44:23.881Z,50
2023-01-22T14:45:04.274Z,50
2023-01-22T14:45:44.820Z,50
2023-01-22T14:46:25.314Z,50
2023-01-22T14:47:05.842Z,50
2023-01-22T14:47:46.347Z,45
2023-01-22T14:51:20.871Z,40
2023-01-22T14:52:02.165Z,40
2023-01-22T14:52:44.274Z,35
2023-01-22T14:53:24.892Z,35
2023-01-22T14:54:06.166Z,35
2023-01-22T14:56:19.692Z,35
2023-01-22T14:57:00.217Z,35
2023-01-22T14:57:41.601Z,35
2023-01-22T14:58:22.083Z,30
2023-01-22T15:00:36.802Z,25
2023-01-22T15:01:17.277Z,25
2023-01-22T15:01:57.737Z,25
2023-01-22T15:02:38.227Z,25
2023-01-22T15:06:01.521Z,20
2023-01-22T15:06:42.934Z,20
2023-01-22T15:07:23.465Z,20
2023-01-22T15:08:03.976Z,20
2023-01-22T15:08:44.512Z,20
2023-01-22T15:09:25.012Z,15
2023-01-22T15:10:05.593Z,15
2023-01-22T15:10:46.091Z,15
2023-01-22T15:15:31.413Z,10
2023-01-22T15:16:12.122Z,10
2023-01-22T15:16:52.568Z,10
2023-01-22T15:17:33.030Z,10
2023-01-22T15:18:13.582Z,10
2023-01-22T15:18:54.105Z,10
2023-01-22T15:19:41.125Z,10
2023-01-22T15:20:15.129Z,10
2023-01-22T15:20:56.168Z,10
2023-01-22T15:27:41.470Z,10
2023-01-22T15:28:21.988Z,10
2023-01-22T15:29:02.515Z,10
2023-01-22T15:29:43.043Z,10
2023-01-22T15:30:23.652Z,10
2023-01-22T15:31:04.659Z,10
2023-01-22T15:31:45.357Z,10
2023-01-22T15:32:25.747Z,10
2023-01-22T15:33:06.256Z,5
2023-01-22T15:40:06.192Z,5
2023-01-22T15:40:47.700Z,5
2023-01-22T15:41:29.237Z,5
2023-01-22T15:44:08.218Z,5
2023-01-22T15:44:48.724Z,5
2023-01-22T15:45:29.297Z,5
2023-01-22T15:46:09.858Z,5
2023-01-22T15:49:32.875Z,5
2023-01-22T15:50:13.428Z,5
2023-01-22T15:50:53.987Z,5
2023-01-22T15:51:34.477Z,5
2023-01-22T15:52:14.992Z,5
2023-01-22T15:52:55.503Z,5
2023-01-22T15:53:36.044Z,5
2023-01-22T15:54:16.578Z,5
2023-01-22T15:57:03.255Z,0
2023-01-22T15:57:45.241Z,0
2023-01-22T15:58:26.494Z,0
2023-01-22T15:59:07.052Z,0
2023-01-22T15:59:55.134Z,0
2023-01-22T16:00:40.239Z,0
2023-01-22T16:01:33.213Z,0
2023-01-22T16:02:14.509Z,0
2023-01-22T16:02:55.636Z,0
2023-01-22T16:04:22.772Z,0
2023-01-22T16:05:04.655Z,0
2023-01-22T16:07:19.159Z,0
2023-01-22T16:08:04.140Z,0
2023-01-22T16:08:48.174Z,0
2023-01-22T16:10:12.657Z,0
2023-01-22T16:10:54.667Z,0
2023-01-22T16:11:36.644Z,0
2023-01-22T16:12:17.646Z,0
2023-01-22T16:13:06.789Z,0
2023-01-22T16:14:32.972Z,0
2023-01-22T16:15:14.231Z,0
2023-01-22T16:15:57.718Z,0
2023-01-22T16:18:13.910Z,0
2023-01-22T16:18:54.293Z,0
2023-01-22T16:19:37.306Z,0
2023-01-22T16:20:18.161Z,0
2023-01-22T16:22:30.902Z,0
2023-01-22T16:23:11.406Z,0
2023-01-22T16:23:51.912Z,0
2023-01-22T16:24:32.494Z,0
2023-01-22T16:28:35.660Z,0
2023-01-22T16:29:16.172Z,0
2023-01-22T16:29:56.703Z,0
2023-01-22T16:30:37.254Z,0
2023-01-22T16:31:17.839Z,0
2023-01-22T16:31:58.245Z,0
2023-01-22T16:32:38.784Z,0
2023-01-22T16:33:19.418Z,0
2023-01-22T16:33:59.815Z,0
2023-01-22T16:34:40.306Z,0
2023-01-22T16:40:45.659Z,0
2023-01-22T16:41:26.162Z,0
2023-01-22T16:42:06.698Z,0
2023-01-22T16:42:47.210Z,0
2023-01-22T16:43:27.724Z,0
2023-01-22T16:44:08.243Z,0
2023-01-22T16:44:48.780Z,0
2023-01-22T16:45:29.280Z,0
2023-01-22T16:46:09.853Z,0
2023-01-22T16:46:50.340Z,0
2023-01-22T16:52:55.677Z,0
2023-01-22T16:55:34.148Z,0
2023-01-22T16:56:14.667Z,0
2023-01-22T16:56:55.204Z,0
2023-01-22T16:57:35.758Z,0
2023-01-22T17:01:41.151Z,0
2023-01-22T17:02:19.559Z,0
2023-01-22T17:02:59.919Z,0
2023-01-22T17:03:40.424Z,0
2023-01-22T17:04:21.209Z,0
2023-01-22T17:05:02.345Z,0
2023-01-22T17:05:42.867Z,0
2023-01-22T17:06:23.362Z,0
2023-01-22T17:09:17.103Z,0
2023-01-22T17:09:57.609Z,0
2023-01-22T17:10:39.102Z,0
2023-01-22T17:11:20.592Z,0
2023-01-22T17:13:36.635Z,0
2023-01-22T17:14:29.884Z,0
2023-01-22T17:15:12.808Z,0
2023-01-22T17:15:54.865Z,0
2023-01-22T17:18:09.368Z,0
2023-01-22T17:18:49.904Z,0
2023-01-22T17:19:30.562Z,0
2023-01-22T17:20:10.981Z,0
2023-01-22T17:24:14.083Z,0
2023-01-22T17:24:54.577Z,0
2023-01-22T17:25:35.121Z,0
2023-01-22T17:26:15.625Z,0
2023-01-22T17:26:56.141Z,0
2023-01-22T17:27:36.680Z,0
2023-01-22T17:28:17.236Z,0
2023-01-22T17:28:57.782Z,0
2023-01-22T17:29:38.390Z,0
2023-01-22T17:30:19.158Z,0
2023-01-22T17:38:16.098Z,0
2023-01-22T17:38:56.730Z,0
2023-01-22T17:39:37.128Z,0
2023-01-22T17:40:17.623Z,0
2023-01-22T17:43:00.839Z,0
2023-01-22T17:43:41.301Z,0
2023-01-22T17:44:21.868Z,0
2023-01-22T17:45:02.402Z,0
2023-01-22T17:45:42.967Z,0
2023-01-22T17:48:21.419Z,0
2023-01-22T17:49:01.965Z,0
2023-01-22T17:49:42.469Z,0
2023-01-22T17:50:22.975Z,0
2023-01-22T17:57:02.088Z,0
2023-01-22T17:57:43.360Z,0
2023-01-22T17:58:23.827Z,0
2023-01-22T17:59:04.347Z,0
2023-01-22T18:02:27.056Z,0
2023-01-22T18:03:07.551Z,0
2023-01-22T18:03:48.090Z,0